• Join FlightAware (Why Join?)
  • Login
  • US Flag 
07:08PM EDT


 

Airport Tracker/Info


-or-


 

Live Flight TrackerFlight Track Log ✈ N137TK ✈ 23-Jun-2013 ✈ KEYW - KAPF

Flight Track Log - Related Links

Times and Time Zones

All times are in EDT time to prevent confusion due to time zone crossing. See the N137TK flight status page for this flight to view local times or setup timezone preferences in your user account.

Time Position Orientation Groundspeed Altitude Reporting Facility
EDT Latitude Longitude Course Direction KTS MPH feet Rate Location/Type
10:20AM 24.6806 -81.8250 312° West 179 206 6,600  Level Miami Center
10:21AM 24.7169 -81.8608 318° Northwest 184 212 8,400 1,140 Climbing Miami Center
10:22AM 24.7728 -81.8792 343° North 230 265 8,900 240 Climbing Miami Center
10:23AM 24.8309 -81.9514 324° Northwest  Level FlightAware Approximate
10:23AM 24.8367 -81.9044 340° North 271 312 8,900  Level Miami Center
10:24AM 24.8820 -81.9621 North  Level FlightAware Approximate
10:24AM 24.9047 -81.9281 343° North 276 318 8,900  Level Miami Center
10:25AM 24.9374 -81.9542 North  Level FlightAware Approximate
10:25AM 24.9750 -81.9514 343° North 265 305 8,900  Level Miami Center
10:26AM 25.0461 -81.9431 North 255 293 8,900  Level Miami Center
10:27AM 25.1136 -81.9253 13° North 250 288 8,900  Level Miami Center
10:28AM 25.1831 -81.9050 15° North 250 288 8,900  Level Miami Center
10:29AM 25.2525 -81.8919 10° North 250 288 8,900  Level Miami Center
10:30AM 25.3219 -81.8764 11° North 250 288 8,900  Level Miami Center
10:31AM 25.3894 -81.8583 14° North 250 288 8,900  Level Miami Center
10:32AM 25.4589 -81.8453 10° North 250 288 8,900 -540 Level Miami Center
10:33AM 25.5319 -81.8392 North 250 288 7,900 -1,020 Descending Miami Center
10:34AM 25.6053 -81.8328 North 255 293 6,900 -960 Descending Miami Center
10:35AM 25.6808 -81.8244 North 255 293 6,000 -960 Descending Miami Center
10:36AM 25.7519 -81.8206 North 255 293 5,000 -540 Descending Miami Center
10:37AM 25.8250 -81.8189 North 255 293 5,000 -540 Level Miami Center
10:38AM 25.8919 -81.8169 North 250 288 4,000 -1,020 Descending Miami Center
10:39AM 25.9567 -81.8128 North 245 282 3,000  Descending Miami Center
10:40AM 26.0236 -81.8133 360° North 239 275 4,000 480 Climbing Miami Center
10:41AM 26.0864 -81.8089 North 239 275 4,000  Level Miami Center
10:42AM 26.1533 -81.8072 North 239 275 4,000  Level Miami Center
10:43AM 26.2222 -81.8031 North 239 275 4,000  Level Miami Center
10:45AM 26.1500 -81.7667 156° South  Level FlightAware Approximate
10:52AM 26.1524 -81.7756 156° South  Level Estimated
10:53AM 26.1524 -81.7756 156° South  Level Estimated